Pedro Leopoldo, Brazil
Current Conditions -  °F | °C
As of 7:00 PM on Thursday 18 Dec 2014 (Local Time) from SBLS Reporting Station
Few Clouds Few Clouds  
Wind Chill: 81°   Ceiling: Unl
Heat Index: 81°   Visibility: 6mi
Dew Point: 57°   Wind: 6mph
Humidity: 45%   Direction: 120°ESE
Pressure: 29.88"   Gusts: NA
Location:  19.62°S, 44.04°W
Report Text: SBLS 182100Z 12005KT 9999 FEW040 27/14 Q1012
Loading
Personal Weather Stations






























Interactive Weather Map New forecast layout! Learn more

10-Day Weather Forecast

Advertisements
Track Severe Weather on mobile